Time,TemperatureF,DewpointF,PressureIn,WindDirection,WindDirectionDegrees,WindSpeedMPH,WindSpeedGustMPH,Humidity,HourlyPrecipIn,Conditions,Clouds,dailyrainin,SoftwareType,DateUTC
2013-03-24 00:02:00,50.0,47.0,29.86,NW,305,7.0,18.0,89,0.02,,,0.42,,2013-03-24 05:02:00,
2013-03-24 00:12:00,50.0,47.0,29.86,NW,305,7.0,18.0,89,0.02,,,0.42,,2013-03-24 05:12:00,
2013-03-24 00:22:00,49.0,46.0,29.86,WNW,297,6.0,13.0,90,0.02,,,0.42,,2013-03-24 05:22:00,
2013-03-24 00:32:00,49.0,46.0,29.86,WNW,300,4.0,13.0,91,0.02,,,0.42,,2013-03-24 05:32:00,
2013-03-24 00:42:00,49.0,46.0,29.86,WNW,300,4.0,13.0,91,0.02,,,0.42,,2013-03-24 05:42:00,
2013-03-24 00:52:00,49.0,46.0,29.88,NW,309,3.0,13.0,91,0.02,,,0.42,,2013-03-24 05:52:00,
2013-03-24 01:02:00,48.0,45.0,29.88,NW,322,9.0,20.0,91,0.00,,,0.42,,2013-03-24 06:02:00,
2013-03-24 01:12:00,48.0,45.0,29.88,NW,322,9.0,20.0,91,0.00,,,0.42,,2013-03-24 06:12:00,
2013-03-24 01:22:00,48.0,45.0,29.88,NW,311,8.0,20.0,90,0.00,,,0.42,,2013-03-24 06:22:00,
2013-03-24 01:32:00,47.0,44.0,29.90,WNW,291,6.0,15.0,90,0.00,,,0.42,,2013-03-24 06:32:00,
2013-03-24 01:42:00,47.0,44.0,29.90,WNW,291,6.0,15.0,90,0.00,,,0.42,,2013-03-24 06:42:00,
2013-03-24 01:52:00,47.0,44.0,29.90,WNW,291,6.0,15.0,90,0.00,,,0.42,,2013-03-24 06:52:00,
2013-03-24 02:02:00,47.0,44.0,29.91,WNW,303,7.0,17.0,89,0.00,,,0.42,,2013-03-24 07:02:00,
2013-03-24 02:12:00,47.0,44.0,29.91,WNW,303,7.0,17.0,89,0.00,,,0.42,,2013-03-24 07:12:00,
2013-03-24 02:22:00,46.0,42.0,29.91,WNW,297,9.0,17.0,87,0.00,,,0.42,,2013-03-24 07:22:00,
2013-03-24 02:32:00,45.0,41.0,29.91,NW,306,9.0,20.0,85,0.00,,,0.42,,2013-03-24 07:32:00,
2013-03-24 02:42:00,45.0,41.0,29.91,NW,306,9.0,20.0,85,0.00,,,0.42,,2013-03-24 07:42:00,
2013-03-24 02:52:00,45.0,41.0,29.91,WNW,284,7.0,20.0,85,0.00,,,0.42,,2013-03-24 07:52:00,
2013-03-24 03:03:00,44.0,40.0,29.93,WNW,291,8.0,18.0,85,0.00,,,0.42,,2013-03-24 08:03:00,
2013-03-24 03:12:00,44.0,40.0,29.93,WNW,291,8.0,18.0,85,0.00,,,0.42,,2013-03-24 08:12:00,
2013-03-24 03:22:00,44.0,39.0,29.94,WNW,283,12.0,20.0,83,0.00,,,0.42,,2013-03-24 08:22:00,
2013-03-24 03:32:00,42.0,37.0,29.93,WNW,285,10.0,21.0,81,0.00,,,0.42,,2013-03-24 08:32:00,
2013-03-24 03:42:00,42.0,37.0,29.93,WNW,285,10.0,21.0,81,0.00,,,0.42,,2013-03-24 08:42:00,
2013-03-24 03:52:00,42.0,36.0,29.95,WNW,293,10.0,21.0,80,0.00,,,0.42,,2013-03-24 08:52:00,
2013-03-24 04:02:00,42.0,36.0,29.96,WNW,282,11.0,22.0,79,0.00,,,0.42,,2013-03-24 09:02:00,
2013-03-24 04:12:00,42.0,36.0,29.96,WNW,282,11.0,22.0,79,0.00,,,0.42,,2013-03-24 09:12:00,
2013-03-24 04:22:00,42.0,35.0,29.96,WNW,288,13.0,23.0,77,0.00,,,0.42,,2013-03-24 09:22:00,
2013-03-24 04:33:00,41.0,34.0,29.96,West,267,10.0,24.0,76,0.00,,,0.42,,2013-03-24 09:33:00,
2013-03-24 04:42:00,41.0,34.0,29.96,West,267,10.0,24.0,76,0.00,,,0.42,,2013-03-24 09:42:00,
2013-03-24 04:52:00,41.0,34.0,29.97,NW,304,7.0,17.0,77,0.00,,,0.42,,2013-03-24 09:52:00,
2013-03-24 05:03:00,41.0,34.0,29.98,WNW,292,9.0,20.0,76,0.00,,,0.42,,2013-03-24 10:03:00,
2013-03-24 05:12:00,41.0,34.0,29.98,WNW,292,9.0,20.0,76,0.00,,,0.42,,2013-03-24 10:12:00,
2013-03-24 05:22:00,41.0,34.0,29.98,NW,319,12.0,21.0,75,0.00,,,0.42,,2013-03-24 10:22:00,
2013-03-24 05:32:00,40.0,33.0,30.00,West,278,9.0,20.0,75,0.00,,,0.42,,2013-03-24 10:32:00,
2013-03-24 05:42:00,40.0,33.0,30.00,West,278,9.0,20.0,75,0.00,,,0.42,,2013-03-24 10:42:00,
2013-03-24 05:52:00,40.0,32.0,30.00,West,279,9.0,18.0,74,0.00,,,0.42,,2013-03-24 10:52:00,
2013-03-24 06:03:00,39.0,31.0,30.01,WNW,293,7.0,22.0,73,0.00,,,0.42,,2013-03-24 11:03:00,
2013-03-24 06:12:00,39.0,31.0,30.01,WNW,293,7.0,22.0,73,0.00,,,0.42,,2013-03-24 11:12:00,
2013-03-24 06:22:00,39.0,30.0,30.02,NW,306,10.0,20.0,71,0.00,,,0.42,,2013-03-24 11:22:00,
2013-03-24 06:32:00,39.0,30.0,30.02,WNW,291,8.0,20.0,71,0.00,,,0.42,,2013-03-24 11:32:00,
2013-03-24 06:42:00,39.0,30.0,30.02,WNW,291,8.0,20.0,71,0.00,,,0.42,,2013-03-24 11:42:00,
2013-03-24 06:52:00,38.0,30.0,30.02,WSW,256,8.0,17.0,72,0.00,,,0.42,,2013-03-24 11:52:00,
2013-03-24 07:02:00,38.0,29.0,30.04,WNW,296,12.0,22.0,70,0.00,,,0.42,,2013-03-24 12:02:00,
2013-03-24 07:12:00,38.0,29.0,30.04,WNW,296,12.0,22.0,70,0.00,,,0.42,,2013-03-24 12:12:00,
2013-03-24 07:22:00,38.0,29.0,30.05,West,280,10.0,21.0,69,0.00,,,0.42,,2013-03-24 12:22:00,
2013-03-24 07:32:00,38.0,29.0,30.06,NW,307,8.0,16.0,69,0.00,,,0.40,,2013-03-24 12:32:00,
2013-03-24 07:42:00,38.0,29.0,30.06,NW,307,8.0,16.0,69,0.00,,,0.40,,2013-03-24 12:42:00,
2013-03-24 07:52:00,38.0,28.0,30.06,WNW,283,8.0,17.0,68,0.00,,,0.40,,2013-03-24 12:52:00,
2013-03-24 08:02:00,38.0,29.0,30.08,West,276,6.0,14.0,70,0.00,,,0.40,,2013-03-24 13:02:00,
2013-03-24 08:12:00,38.0,29.0,30.08,West,276,6.0,14.0,70,0.00,,,0.40,,2013-03-24 13:12:00,
2013-03-24 08:22:00,38.0,29.0,30.08,West,274,11.0,18.0,69,0.00,,,0.40,,2013-03-24 13:22:00,
2013-03-24 08:32:00,38.0,28.0,30.08,NW,306,10.0,20.0,67,0.00,,,0.04,,2013-03-24 13:32:00,
2013-03-24 08:42:00,38.0,28.0,30.08,NW,306,10.0,20.0,67,0.00,,,0.04,,2013-03-24 13:42:00,
2013-03-24 08:52:00,38.0,28.0,30.10,West,274,7.0,20.0,68,0.00,,,0.02,,2013-03-24 13:52:00,
2013-03-24 09:02:00,38.0,28.0,30.11,WNW,284,11.0,22.0,67,0.00,,,0.02,,2013-03-24 14:02:00,
2013-03-24 09:12:00,38.0,28.0,30.11,WNW,284,11.0,22.0,67,0.00,,,0.02,,2013-03-24 14:12:00,
2013-03-24 09:22:00,38.0,28.0,30.12,NW,307,10.0,25.0,66,0.00,,,0.02,,2013-03-24 14:22:00,
2013-03-24 09:32:00,38.0,28.0,30.14,WNW,292,10.0,21.0,66,0.00,,,0.02,,2013-03-24 14:32:00,
2013-03-24 09:42:00,38.0,28.0,30.14,WNW,292,10.0,21.0,66,0.00,,,0.02,,2013-03-24 14:42:00,
2013-03-24 09:52:00,38.0,27.0,30.14,West,278,12.0,22.0,65,0.00,,,0.02,,2013-03-24 14:52:00,
2013-03-24 10:02:00,39.0,28.0,30.14,WNW,290,10.0,20.0,65,0.00,,,0.02,,2013-03-24 15:02:00,
2013-03-24 10:12:00,39.0,28.0,30.14,WNW,290,10.0,20.0,65,0.00,,,0.02,,2013-03-24 15:12:00,
2013-03-24 10:22:00,39.0,28.0,30.14,NW,308,9.0,17.0,64,0.00,,,0.02,,2013-03-24 15:22:00,
2013-03-24 10:33:00,39.0,28.0,30.15,WNW,282,9.0,15.0,65,0.00,,,0.02,,2013-03-24 15:33:00,
2013-03-24 10:43:00,39.0,28.0,30.15,WNW,282,9.0,15.0,65,0.00,,,0.02,,2013-03-24 15:43:00,
2013-03-24 10:53:00,40.0,29.0,30.15,WNW,302,9.0,20.0,64,0.00,,,0.02,,2013-03-24 15:53:00,
2013-03-24 11:03:00,41.0,29.0,30.16,West,271,10.0,21.0,61,0.00,,,0.02,,2013-03-24 16:03:00,
2013-03-24 11:12:00,41.0,29.0,30.16,West,271,10.0,21.0,61,0.00,,,0.02,,2013-03-24 16:12:00,
2013-03-24 11:22:00,41.0,28.0,30.16,WNW,303,10.0,21.0,60,0.00,,,0.02,,2013-03-24 16:22:00,
2013-03-24 11:33:00,43.0,29.0,30.16,West,272,7.0,17.0,57,0.00,,,0.02,,2013-03-24 16:33:00,
2013-03-24 11:42:00,43.0,29.0,30.16,West,272,7.0,17.0,57,0.00,,,0.02,,2013-03-24 16:42:00,
2013-03-24 11:52:00,43.0,29.0,30.16,NW,304,9.0,20.0,57,0.00,,,0.02,,2013-03-24 16:52:00,
2013-03-24 12:02:00,43.0,28.0,30.17,NW,309,10.0,18.0,55,0.00,,,0.02,,2013-03-24 17:02:00,
2013-03-24 12:12:00,43.0,28.0,30.17,NW,309,10.0,18.0,55,0.00,,,0.02,,2013-03-24 17:12:00,
2013-03-24 12:22:00,44.0,28.0,30.17,NW,324,9.0,20.0,54,0.00,,,0.02,,2013-03-24 17:22:00,
2013-03-24 12:32:00,45.0,28.0,30.17,NW,312,9.0,22.0,52,0.00,,,0.02,,2013-03-24 17:32:00,
2013-03-24 12:42:00,45.0,28.0,30.17,NW,312,9.0,22.0,52,0.00,,,0.02,,2013-03-24 17:42:00,
2013-03-24 12:52:00,46.0,29.0,30.16,WNW,301,12.0,22.0,51,0.00,,,0.02,,2013-03-24 17:52:00,
2013-03-24 13:02:00,46.0,29.0,30.16,NW,321,10.0,20.0,51,0.00,,,0.02,,2013-03-24 18:02:00,
2013-03-24 13:12:00,46.0,29.0,30.16,NW,321,10.0,20.0,51,0.00,,,0.02,,2013-03-24 18:12:00,
2013-03-24 13:22:00,46.0,28.0,30.16,WNW,286,10.0,20.0,50,0.00,,,0.02,,2013-03-24 18:22:00,
2013-03-24 13:32:00,47.0,29.0,30.16,NNW,348,10.0,18.0,49,0.00,,,0.02,,2013-03-24 18:32:00,
2013-03-24 13:43:00,47.0,29.0,30.16,NNW,348,10.0,18.0,49,0.00,,,0.02,,2013-03-24 18:43:00,
2013-03-24 13:52:00,47.0,29.0,30.15,West,280,9.0,16.0,50,0.00,,,0.02,,2013-03-24 18:52:00,
2013-03-24 14:02:00,48.0,29.0,30.15,NW,305,12.0,22.0,48,0.00,,,0.02,,2013-03-24 19:02:00,
2013-03-24 14:12:00,48.0,29.0,30.15,NW,305,12.0,22.0,48,0.00,,,0.02,,2013-03-24 19:12:00,
2013-03-24 14:22:00,48.0,29.0,30.15,WNW,298,9.0,20.0,48,0.00,,,0.02,,2013-03-24 19:22:00,
2013-03-24 14:32:00,48.0,29.0,30.15,WNW,294,10.0,16.0,47,0.00,,,0.02,,2013-03-24 19:32:00,
2013-03-24 14:42:00,48.0,29.0,30.15,WNW,294,10.0,16.0,47,0.00,,,0.02,,2013-03-24 19:42:00,
2013-03-24 14:53:00,49.0,30.0,30.14,WNW,296,10.0,16.0,47,0.00,,,0.02,,2013-03-24 19:53:00,
2013-03-24 15:02:00,49.0,30.0,30.12,NNW,329,9.0,21.0,47,0.00,,,0.02,,2013-03-24 20:02:00,
2013-03-24 15:12:00,49.0,30.0,30.12,NNW,329,9.0,21.0,47,0.00,,,0.02,,2013-03-24 20:12:00,
2013-03-24 15:22:00,49.0,30.0,30.12,WNW,293,7.0,16.0,47,0.00,,,0.02,,2013-03-24 20:22:00,
2013-03-24 15:32:00,49.0,29.0,30.13,NW,310,9.0,20.0,46,0.00,,,0.02,,2013-03-24 20:32:00,
2013-03-24 15:42:00,49.0,29.0,30.13,NW,310,9.0,20.0,46,0.00,,,0.02,,2013-03-24 20:42:00,
2013-03-24 15:53:00,50.0,30.0,30.12,North,0,9.0,16.0,46,0.00,,,0.02,,2013-03-24 20:53:00,
2013-03-24 16:02:00,50.0,30.0,30.12,WNW,292,6.0,20.0,46,0.00,,,0.02,,2013-03-24 21:02:00,
2013-03-24 16:12:00,50.0,30.0,30.12,WNW,292,6.0,20.0,46,0.00,,,0.02,,2013-03-24 21:12:00,
2013-03-24 16:22:00,50.0,30.0,30.12,NW,308,7.0,16.0,46,0.00,,,0.02,,2013-03-24 21:22:00,
2013-03-24 16:33:00,50.0,29.0,30.11,WNW,288,7.0,15.0,45,0.00,,,0.02,,2013-03-24 21:33:00,
2013-03-24 16:43:00,50.0,29.0,30.11,WNW,288,7.0,15.0,45,0.00,,,0.02,,2013-03-24 21:43:00,
2013-03-24 16:53:00,50.0,29.0,30.11,WNW,300,9.0,18.0,44,0.00,,,0.02,,2013-03-24 21:53:00,
2013-03-24 17:02:00,51.0,30.0,30.10,NNW,336,7.0,16.0,44,0.00,,,0.02,,2013-03-24 22:02:00,
2013-03-24 17:13:00,51.0,30.0,30.10,NNW,336,7.0,16.0,44,0.00,,,0.02,,2013-03-24 22:13:00,
2013-03-24 17:23:00,51.0,30.0,30.10,NNW,335,6.0,15.0,44,0.00,,,0.02,,2013-03-24 22:23:00,
2013-03-24 17:33:00,51.0,29.0,30.10,NNW,329,6.0,20.0,43,0.00,,,0.02,,2013-03-24 22:33:00,
2013-03-24 17:42:00,51.0,29.0,30.10,NNW,329,6.0,20.0,43,0.00,,,0.02,,2013-03-24 22:42:00,
2013-03-24 17:52:00,51.0,29.0,30.10,NW,321,9.0,20.0,42,0.00,,,0.02,,2013-03-24 22:52:00,
2013-03-24 18:02:00,51.0,29.0,30.10,NW,308,5.0,16.0,43,0.00,,,0.02,,2013-03-24 23:02:00,
2013-03-24 18:12:00,51.0,29.0,30.10,NW,308,5.0,16.0,43,0.00,,,0.02,,2013-03-24 23:12:00,
2013-03-24 18:22:00,51.0,29.0,30.09,WNW,298,6.0,16.0,43,0.00,,,0.02,,2013-03-24 23:22:00,
2013-03-24 18:32:00,51.0,29.0,30.09,NW,304,6.0,16.0,42,0.00,,,0.02,,2013-03-24 23:32:00,
2013-03-24 18:42:00,51.0,29.0,30.09,NW,304,6.0,16.0,42,0.00,,,0.02,,2013-03-24 23:42:00,
2013-03-24 18:53:00,51.0,28.0,30.10,NW,310,7.0,16.0,41,0.00,,,0.02,,2013-03-24 23:53:00,
2013-03-24 19:02:00,51.0,28.0,30.10,WNW,300,5.0,18.0,41,0.00,,,0.02,,2013-03-25 00:02:00,
2013-03-24 19:12:00,51.0,28.0,30.10,WNW,300,5.0,18.0,41,0.00,,,0.02,,2013-03-25 00:12:00,
2013-03-24 19:22:00,51.0,28.0,30.10,WNW,300,5.0,18.0,41,0.00,,,0.02,,2013-03-25 00:22:00,
2013-03-24 19:32:00,51.0,28.0,30.11,NW,312,5.0,9.0,41,0.00,,,0.02,,2013-03-25 00:32:00,
2013-03-24 19:42:00,51.0,28.0,30.11,NW,312,5.0,9.0,41,0.00,,,0.02,,2013-03-25 00:42:00,
2013-03-24 19:52:00,51.0,28.0,30.11,NW,312,5.0,9.0,41,0.00,,,0.02,,2013-03-25 00:52:00,
2013-03-24 20:02:00,49.0,26.0,30.12,NW,318,4.0,12.0,41,0.00,,,0.02,,2013-03-25 01:02:00,
2013-03-24 20:12:00,49.0,26.0,30.12,NW,318,4.0,12.0,41,0.00,,,0.02,,2013-03-25 01:12:00,
2013-03-24 20:22:00,49.0,27.0,30.12,NW,308,5.0,13.0,42,0.00,,,0.02,,2013-03-25 01:22:00,
2013-03-24 20:32:00,48.0,27.0,30.13,NNW,340,3.0,9.0,43,0.00,,,0.02,,2013-03-25 01:32:00,
2013-03-24 20:42:00,48.0,27.0,30.13,NNW,340,3.0,9.0,43,0.00,,,0.02,,2013-03-25 01:42:00,
2013-03-24 20:52:00,47.0,26.0,30.14,NNW,331,1.0,6.0,43,0.00,,,0.02,,2013-03-25 01:52:00,
2013-03-24 21:02:00,47.0,26.0,30.14,NW,307,3.0,7.0,43,0.00,,,0.02,,2013-03-25 02:02:00,
2013-03-24 21:12:00,47.0,26.0,30.14,NW,307,3.0,7.0,43,0.00,,,0.02,,2013-03-25 02:12:00,
2013-03-24 21:22:00,46.0,24.0,30.15,NW,316,2.0,7.0,41,0.00,,,0.02,,2013-03-25 02:22:00,
2013-03-24 21:32:00,46.0,22.0,30.15,NW,309,2.0,9.0,39,0.00,,,0.02,,2013-03-25 02:32:00,
2013-03-24 21:42:00,46.0,22.0,30.15,NW,309,2.0,9.0,39,0.00,,,0.02,,2013-03-25 02:42:00,
2013-03-24 21:52:00,46.0,23.0,30.16,NNW,334,2.0,10.0,40,0.00,,,0.02,,2013-03-25 02:52:00,
2013-03-24 22:02:00,45.0,22.0,30.17,WNW,290,2.0,7.0,40,0.00,,,0.02,,2013-03-25 03:02:00,
2013-03-24 22:13:00,45.0,22.0,30.17,WNW,290,2.0,7.0,40,0.00,,,0.02,,2013-03-25 03:13:00,
2013-03-24 22:22:00,45.0,23.0,30.17,NW,317,2.0,6.0,41,0.00,,,0.02,,2013-03-25 03:22:00,
2013-03-24 22:33:00,44.0,22.0,30.18,NNW,331,0.0,5.0,42,0.00,,,0.02,,2013-03-25 03:33:00,
2013-03-24 22:42:00,44.0,23.0,30.19,NNW,331,0.0,1.0,43,0.00,,,0.02,,2013-03-25 03:42:00,
2013-03-24 22:52:00,44.0,23.0,30.19,NNW,331,0.0,1.0,43,0.00,,,0.02,,2013-03-25 03:52:00,
2013-03-24 23:02:00,44.0,23.0,30.19,NNW,331,0.0,1.0,44,0.00,,,0.02,,2013-03-25 04:02:00,
2013-03-24 23:12:00,44.0,23.0,30.19,NNW,331,0.0,1.0,44,0.00,,,0.02,,2013-03-25 04:12:00,
2013-03-24 23:22:00,43.0,24.0,30.20,NW,318,1.0,6.0,46,0.00,,,0.02,,2013-03-25 04:22:00,
2013-03-24 23:33:00,42.0,23.0,30.21,NNW,329,1.0,7.0,46,0.00,,,0.02,,2013-03-25 04:33:00,
2013-03-24 23:42:00,42.0,23.0,30.21,NNW,329,1.0,7.0,46,0.00,,,0.02,,2013-03-25 04:42:00,
2013-03-24 23:52:00,42.0,23.0,30.21,NNW,345,2.0,9.0,46,0.00,,,0.02,,2013-03-25 04:52:00,